This is the latest recevied weather packets stored in our database for station/object KI7JYE. If no packets are shown the sender has not sent any weather packets the latest 10 day(s).
| Time | Temp. | Humidity | Pressure | Rain* | Wind** | Luminosity | Snow |
|---|---|---|---|---|---|---|---|
| 1777864654 | 23.89° C | 53% | 1005.4 hPa | 0 mm | - | 3 W/m² | - |
| 1777864352 | 23.89° C | 52% | 1005.4 hPa | 0 mm | - | 6 W/m² | - |
| 1777863745 | 25.56° C | 47% | 1005.3 hPa | 0 mm | - | 11 W/m² | - |
| 1777863138 | 27.22° C | 42% | 1005.2 hPa | 0 mm | - | 16 W/m² | - |
| 1777846771 | 32.22° C | 29% | 1007 hPa | 0 mm | - | 567 W/m² | - |
| 1777842834 | 31.11° C | 35% | 1007.7 hPa | 0 mm | - | 601 W/m² | - |
| 1777842227 | 31.11° C | 36% | 1007.9 hPa | 0 mm | - | 604 W/m² | - |
| 1777841315 | 31.11° C | 35% | 1008 hPa | 0 mm | - | 637 W/m² | - |
| 1777840709 | 30.56° C | 34% | 1008.1 hPa | 0 mm | - | 621 W/m² | - |
| 1777840407 | 31.11° C | 35% | 1008.5 hPa | 0 mm | - | 633 W/m² | - |
| 1777840103 | 31.11° C | 37% | 1008.3 hPa | 0 mm | - | 649 W/m² | - |
| 1777839802 | 30.56° C | 36% | 1008.5 hPa | 0 mm | - | 652 W/m² | - |
| 1777839500 | 30.56° C | 36% | 1008.5 hPa | 0 mm | - | 632 W/m² | - |
| 1777838894 | 30.56° C | 38% | 1008.7 hPa | 0 mm | - | 589 W/m² | - |
| 1777836769 | 30° C | 36% | 1009 hPa | 0 mm | - | 696 W/m² | - |
| 1777835251 | 28.33° C | 42% | 1009.3 hPa | 0 mm | - | 735 W/m² | - |
| 1777834948 | 28.89° C | 42% | 1009.1 hPa | 0 mm | - | 735 W/m² | - |
| 1777833732 | 27.78° C | 45% | 1009.5 hPa | 0 mm | - | 768 W/m² | - |
| 1777833126 | 27.78° C | 45% | 1009.5 hPa | 0 mm | - | 764 W/m² | - |
| 1777832522 | 26.67° C | 45% | 1009.5 hPa | 0 mm | - | 761 W/m² | - |
| 1777832218 | 26.67° C | 48% | 1009.7 hPa | 0 mm | - | 760 W/m² | - |
| 1777831915 | 26.67° C | 48% | 1009.5 hPa | 0 mm | - | 766 W/m² | - |
| 1777831612 | 26.67° C | 45% | 1009.9 hPa | 0 mm | - | 765 W/m² | - |
| 1777830401 | 26.11° C | 50% | 1009.8 hPa | 0 mm | - | 716 W/m² | - |
| 1777829490 | 25° C | 51% | 1009.7 hPa | 0 mm | - | 711 W/m² | - |
* Rain latest hour (hover to see other rain measurements)
** Current wind speed in m/s (hover to see current wind gust speed)